sensor_id;sensor_type;location;lat;lon;timestamp;temperature;humidity
52495;DHT22;38405;53.212;5.660;2022-12-07T00:03:37;3.60;99.90
52495;DHT22;38405;53.212;5.660;2022-12-07T00:06:04;3.60;99.90
52495;DHT22;38405;53.212;5.660;2022-12-07T00:08:31;3.60;99.90
52495;DHT22;38405;53.212;5.660;2022-12-07T00:11:03;3.60;99.90
52495;DHT22;38405;53.212;5.660;2022-12-07T00:13:30;3.70;99.90
52495;DHT22;38405;53.212;5.660;2022-12-07T00:15:56;3.70;99.90
52495;DHT22;38405;53.212;5.660;2022-12-07T00:18:24;3.80;99.90
52495;DHT22;38405;53.212;5.660;2022-12-07T00:20:50;3.80;99.90
52495;DHT22;38405;53.212;5.660;2022-12-07T00:23:15;3.80;99.90
52495;DHT22;38405;53.212;5.660;2022-12-07T00:25:41;3.90;99.90
52495;DHT22;38405;53.212;5.660;2022-12-07T00:28:07;4.10;99.90
52495;DHT22;38405;53.212;5.660;2022-12-07T00:30:34;4.20;99.90
52495;DHT22;38405;53.212;5.660;2022-12-07T00:33:00;4.30;99.90
52495;DHT22;38405;53.212;5.660;2022-12-07T00:35:25;4.30;99.90
52495;DHT22;38405;53.212;5.660;2022-12-07T00:37:51;4.30;99.90
52495;DHT22;38405;53.212;5.660;2022-12-07T00:40:17;4.30;99.90
52495;DHT22;38405;53.212;5.660;2022-12-07T00:42:42;4.20;99.90
52495;DHT22;38405;53.212;5.660;2022-12-07T00:45:08;4.30;99.90
52495;DHT22;38405;53.212;5.660;2022-12-07T00:47:34;4.00;99.90
52495;DHT22;38405;53.212;5.660;2022-12-07T00:49:59;4.00;99.90
52495;DHT22;38405;53.212;5.660;2022-12-07T00:52:25;3.80;99.90
52495;DHT22;38405;53.212;5.660;2022-12-07T00:54:51;3.80;99.90
52495;DHT22;38405;53.212;5.660;2022-12-07T00:57:16;3.60;99.90
52495;DHT22;38405;53.212;5.660;2022-12-07T00:59:42;3.60;99.90
52495;DHT22;38405;53.212;5.660;2022-12-07T01:02:07;3.60;99.90
52495;DHT22;38405;53.212;5.660;2022-12-07T01:04:34;3.50;99.90
52495;DHT22;38405;53.212;5.660;2022-12-07T01:06:59;3.60;99.90
52495;DHT22;38405;53.212;5.660;2022-12-07T01:09:25;3.60;99.90
52495;DHT22;38405;53.212;5.660;2022-12-07T01:11:50;3.50;99.90
52495;DHT22;38405;53.212;5.660;2022-12-07T01:14:18;3.60;99.90
52495;DHT22;38405;53.212;5.660;2022-12-07T01:16:43;3.70;99.90
52495;DHT22;38405;53.212;5.660;2022-12-07T01:19:09;3.80;99.90
52495;DHT22;38405;53.212;5.660;2022-12-07T01:21:35;3.80;99.90
52495;DHT22;38405;53.212;5.660;2022-12-07T01:24:03;3.80;99.90
52495;DHT22;38405;53.212;5.660;2022-12-07T01:26:29;3.90;99.90
52495;DHT22;38405;53.212;5.660;2022-12-07T01:28:55;3.90;99.90
52495;DHT22;38405;53.212;5.660;2022-12-07T01:31:23;4.00;99.90
52495;DHT22;38405;53.212;5.660;2022-12-07T01:33:52;4.00;99.90
52495;DHT22;38405;53.212;5.660;2022-12-07T01:38:50;4.30;99.90
52495;DHT22;38405;53.212;5.660;2022-12-07T01:41:19;4.40;99.90
52495;DHT22;38405;53.212;5.660;2022-12-07T01:44:08;4.40;99.90
52495;DHT22;38405;53.212;5.660;2022-12-07T01:46:33;4.50;99.90
52495;DHT22;38405;53.212;5.660;2022-12-07T01:48:59;4.60;99.90
52495;DHT22;38405;53.212;5.660;2022-12-07T01:51:26;4.60;99.90
52495;DHT22;38405;53.212;5.660;2022-12-07T01:53:53;4.50;99.90
52495;DHT22;38405;53.212;5.660;2022-12-07T01:56:24;4.40;99.90
52495;DHT22;38405;53.212;5.660;2022-12-07T01:58:52;4.40;99.90
52495;DHT22;38405;53.212;5.660;2022-12-07T02:01:18;4.20;99.90
52495;DHT22;38405;53.212;5.660;2022-12-07T02:03:44;4.20;99.90
52495;DHT22;38405;53.212;5.660;2022-12-07T02:06:14;4.30;99.90
52495;DHT22;38405;53.212;5.660;2022-12-07T02:08:41;4.20;99.90
52495;DHT22;38405;53.212;5.660;2022-12-07T02:11:08;4.10;99.90
52495;DHT22;38405;53.212;5.660;2022-12-07T02:13:36;4.00;99.90
52495;DHT22;38405;53.212;5.660;2022-12-07T02:21:19;4.10;99.90
52495;DHT22;38405;53.212;5.660;2022-12-07T02:27:07;3.80;99.90
52495;DHT22;38405;53.212;5.660;2022-12-07T02:29:38;4.00;99.90
52495;DHT22;38405;53.212;5.660;2022-12-07T02:32:23;4.00;99.90
52495;DHT22;38405;53.212;5.660;2022-12-07T02:34:55;4.20;99.90
52495;DHT22;38405;53.212;5.660;2022-12-07T02:37:33;4.20;99.90
52495;DHT22;38405;53.212;5.660;2022-12-07T02:40:25;4.50;99.90
52495;DHT22;38405;53.212;5.660;2022-12-07T02:42:57;4.20;99.90
52495;DHT22;38405;53.212;5.660;2022-12-07T02:45:27;4.80;99.90
52495;DHT22;38405;53.212;5.660;2022-12-07T02:47:57;4.40;99.90
52495;DHT22;38405;53.212;5.660;2022-12-07T02:50:24;4.30;99.90
52495;DHT22;38405;53.212;5.660;2022-12-07T02:52:50;4.40;99.90
52495;DHT22;38405;53.212;5.660;2022-12-07T02:55:18;3.80;99.90
52495;DHT22;38405;53.212;5.660;2022-12-07T03:00:21;3.90;99.90
52495;DHT22;38405;53.212;5.660;2022-12-07T03:08:11;4.00;99.90
52495;DHT22;38405;53.212;5.660;2022-12-07T03:16:08;4.10;99.90
52495;DHT22;38405;53.212;5.660;2022-12-07T03:18:37;4.10;99.90
52495;DHT22;38405;53.212;5.660;2022-12-07T03:21:08;4.10;99.90
52495;DHT22;38405;53.212;5.660;2022-12-07T03:23:44;4.10;99.90
52495;DHT22;38405;53.212;5.660;2022-12-07T03:26:12;4.10;99.90
52495;DHT22;38405;53.212;5.660;2022-12-07T03:28:45;4.00;99.90
52495;DHT22;38405;53.212;5.660;2022-12-07T03:31:17;4.10;99.90
52495;DHT22;38405;53.212;5.660;2022-12-07T03:34:06;4.10;99.90
52495;DHT22;38405;53.212;5.660;2022-12-07T03:36:44;4.00;99.90
52495;DHT22;38405;53.212;5.660;2022-12-07T03:41:42;4.00;99.90
52495;DHT22;38405;53.212;5.660;2022-12-07T03:44:08;4.10;99.90
52495;DHT22;38405;53.212;5.660;2022-12-07T03:49:25;4.00;99.90
52495;DHT22;38405;53.212;5.660;2022-12-07T03:55:23;4.10;99.90
52495;DHT22;38405;53.212;5.660;2022-12-07T03:57:22;4.00;99.90
52495;DHT22;38405;53.212;5.660;2022-12-07T03:59:49;4.20;99.90
52495;DHT22;38405;53.212;5.660;2022-12-07T04:02:16;4.00;99.90
52495;DHT22;38405;53.212;5.660;2022-12-07T04:04:42;4.60;99.90
52495;DHT22;38405;53.212;5.660;2022-12-07T04:07:09;4.10;99.90
52495;DHT22;38405;53.212;5.660;2022-12-07T04:09:34;4.10;99.90
52495;DHT22;38405;53.212;5.660;2022-12-07T04:12:00;4.10;99.90
52495;DHT22;38405;53.212;5.660;2022-12-07T04:14:25;4.20;99.90
52495;DHT22;38405;53.212;5.660;2022-12-07T04:16:54;4.00;99.90
52495;DHT22;38405;53.212;5.660;2022-12-07T04:19:27;4.00;99.90
52495;DHT22;38405;53.212;5.660;2022-12-07T04:21:54;4.00;99.90
52495;DHT22;38405;53.212;5.660;2022-12-07T04:24:20;4.00;99.90
52495;DHT22;38405;53.212;5.660;2022-12-07T04:26:46;3.90;99.90
52495;DHT22;38405;53.212;5.660;2022-12-07T04:29:13;3.90;99.90
52495;DHT22;38405;53.212;5.660;2022-12-07T04:31:39;3.90;99.90
52495;DHT22;38405;53.212;5.660;2022-12-07T04:34:06;3.90;99.90
52495;DHT22;38405;53.212;5.660;2022-12-07T04:36:32;4.40;99.90
52495;DHT22;38405;53.212;5.660;2022-12-07T04:38:58;3.90;99.90
52495;DHT22;38405;53.212;5.660;2022-12-07T04:41:24;4.50;99.90
52495;DHT22;38405;53.212;5.660;2022-12-07T04:43:58;3.70;99.90
52495;DHT22;38405;53.212;5.660;2022-12-07T04:46:25;3.70;99.90
52495;DHT22;38405;53.212;5.660;2022-12-07T04:48:51;3.80;99.90
52495;DHT22;38405;53.212;5.660;2022-12-07T04:51:26;3.90;99.90
52495;DHT22;38405;53.212;5.660;2022-12-07T04:53:53;4.00;99.90
52495;DHT22;38405;53.212;5.660;2022-12-07T04:56:19;4.10;99.90
52495;DHT22;38405;53.212;5.660;2022-12-07T04:58:46;4.10;99.90
52495;DHT22;38405;53.212;5.660;2022-12-07T05:01:13;4.00;99.90
52495;DHT22;38405;53.212;5.660;2022-12-07T05:03:39;4.10;99.90
52495;DHT22;38405;53.212;5.660;2022-12-07T05:06:05;4.10;99.90
52495;DHT22;38405;53.212;5.660;2022-12-07T05:08:32;4.10;99.90
52495;DHT22;38405;53.212;5.660;2022-12-07T05:10:58;4.20;99.90
52495;DHT22;38405;53.212;5.660;2022-12-07T05:13:24;4.00;99.90
52495;DHT22;38405;53.212;5.660;2022-12-07T05:15:50;4.00;99.90
52495;DHT22;38405;53.212;5.660;2022-12-07T05:18:15;4.20;99.90
52495;DHT22;38405;53.212;5.660;2022-12-07T05:20:42;4.20;99.90
52495;DHT22;38405;53.212;5.660;2022-12-07T05:23:07;4.10;99.90
52495;DHT22;38405;53.212;5.660;2022-12-07T05:25:33;3.70;99.90
52495;DHT22;38405;53.212;5.660;2022-12-07T05:27:59;3.60;99.90
52495;DHT22;38405;53.212;5.660;2022-12-07T05:30:25;3.70;99.90
52495;DHT22;38405;53.212;5.660;2022-12-07T05:32:52;3.50;99.90
52495;DHT22;38405;53.212;5.660;2022-12-07T05:35:18;3.50;99.90
52495;DHT22;38405;53.212;5.660;2022-12-07T05:37:44;3.40;99.90
52495;DHT22;38405;53.212;5.660;2022-12-07T05:40:11;3.40;99.90
52495;DHT22;38405;53.212;5.660;2022-12-07T05:42:37;3.30;99.90
52495;DHT22;38405;53.212;5.660;2022-12-07T05:45:03;3.30;99.90
52495;DHT22;38405;53.212;5.660;2022-12-07T05:47:29;3.20;99.90
52495;DHT22;38405;53.212;5.660;2022-12-07T05:49:54;3.20;99.90
52495;DHT22;38405;53.212;5.660;2022-12-07T05:52:20;3.20;99.90
52495;DHT22;38405;53.212;5.660;2022-12-07T05:54:46;3.10;99.90
52495;DHT22;38405;53.212;5.660;2022-12-07T05:57:12;3.70;99.90
52495;DHT22;38405;53.212;5.660;2022-12-07T05:59:37;3.00;99.90
52495;DHT22;38405;53.212;5.660;2022-12-07T06:02:09;2.90;99.90
52495;DHT22;38405;53.212;5.660;2022-12-07T06:04:37;2.90;99.90
52495;DHT22;38405;53.212;5.660;2022-12-07T06:07:03;2.90;99.90
52495;DHT22;38405;53.212;5.660;2022-12-07T06:09:29;3.10;99.90
52495;DHT22;38405;53.212;5.660;2022-12-07T06:11:56;2.90;99.90
52495;DHT22;38405;53.212;5.660;2022-12-07T06:14:40;2.90;99.90
52495;DHT22;38405;53.212;5.660;2022-12-07T06:17:06;2.90;99.90
52495;DHT22;38405;53.212;5.660;2022-12-07T06:19:32;2.90;99.90
52495;DHT22;38405;53.212;5.660;2022-12-07T06:21:58;2.80;99.90
52495;DHT22;38405;53.212;5.660;2022-12-07T06:24:24;2.80;99.90
52495;DHT22;38405;53.212;5.660;2022-12-07T06:26:50;2.80;99.90
52495;DHT22;38405;53.212;5.660;2022-12-07T06:29:17;2.90;99.90
52495;DHT22;38405;53.212;5.660;2022-12-07T06:31:42;2.90;99.90
52495;DHT22;38405;53.212;5.660;2022-12-07T06:34:22;3.00;99.90
52495;DHT22;38405;53.212;5.660;2022-12-07T06:36:48;2.90;99.90
52495;DHT22;38405;53.212;5.660;2022-12-07T06:39:20;2.90;99.90
52495;DHT22;38405;53.212;5.660;2022-12-07T06:41:46;2.90;99.90
52495;DHT22;38405;53.212;5.660;2022-12-07T06:44:12;2.90;99.90
52495;DHT22;38405;53.212;5.660;2022-12-07T06:46:38;2.90;99.90
52495;DHT22;38405;53.212;5.660;2022-12-07T06:49:04;2.90;99.90
52495;DHT22;38405;53.212;5.660;2022-12-07T06:51:31;3.00;99.90
52495;DHT22;38405;53.212;5.660;2022-12-07T06:53:57;3.00;99.90
52495;DHT22;38405;53.212;5.660;2022-12-07T06:56:22;3.10;99.90
52495;DHT22;38405;53.212;5.660;2022-12-07T06:58:48;3.10;99.90
52495;DHT22;38405;53.212;5.660;2022-12-07T07:01:16;3.10;99.90
52495;DHT22;38405;53.212;5.660;2022-12-07T07:03:44;3.30;99.90
52495;DHT22;38405;53.212;5.660;2022-12-07T07:06:10;3.40;99.90
52495;DHT22;38405;53.212;5.660;2022-12-07T07:08:37;3.60;99.90
52495;DHT22;38405;53.212;5.660;2022-12-07T07:11:03;3.70;99.90
52495;DHT22;38405;53.212;5.660;2022-12-07T07:13:31;3.70;99.90
52495;DHT22;38405;53.212;5.660;2022-12-07T07:15:57;3.80;99.90
52495;DHT22;38405;53.212;5.660;2022-12-07T07:18:23;3.70;99.90
52495;DHT22;38405;53.212;5.660;2022-12-07T07:20:51;3.60;99.90
52495;DHT22;38405;53.212;5.660;2022-12-07T07:23:17;3.60;99.90
52495;DHT22;38405;53.212;5.660;2022-12-07T07:25:47;3.50;99.90
52495;DHT22;38405;53.212;5.660;2022-12-07T07:28:13;3.40;99.90
52495;DHT22;38405;53.212;5.660;2022-12-07T07:30:38;3.40;99.90
52495;DHT22;38405;53.212;5.660;2022-12-07T07:33:05;3.30;99.90
52495;DHT22;38405;53.212;5.660;2022-12-07T07:35:32;3.30;99.90
52495;DHT22;38405;53.212;5.660;2022-12-07T07:37:58;3.30;99.90
52495;DHT22;38405;53.212;5.660;2022-12-07T07:40:24;3.40;99.90
52495;DHT22;38405;53.212;5.660;2022-12-07T07:42:52;3.40;99.90
52495;DHT22;38405;53.212;5.660;2022-12-07T07:45:22;3.40;99.90
52495;DHT22;38405;53.212;5.660;2022-12-07T07:47:48;3.40;99.90
52495;DHT22;38405;53.212;5.660;2022-12-07T07:50:14;4.10;99.90
52495;DHT22;38405;53.212;5.660;2022-12-07T07:52:40;3.30;99.90
52495;DHT22;38405;53.212;5.660;2022-12-07T07:55:06;3.30;99.90
52495;DHT22;38405;53.212;5.660;2022-12-07T07:57:36;3.30;99.90
52495;DHT22;38405;53.212;5.660;2022-12-07T08:00:04;3.40;99.90
52495;DHT22;38405;53.212;5.660;2022-12-07T08:02:30;3.40;99.90
52495;DHT22;38405;53.212;5.660;2022-12-07T08:04:56;3.50;99.90
52495;DHT22;38405;53.212;5.660;2022-12-07T08:07:22;3.80;99.90
52495;DHT22;38405;53.212;5.660;2022-12-07T08:09:47;4.00;99.90
52495;DHT22;38405;53.212;5.660;2022-12-07T08:12:13;4.30;99.90
52495;DHT22;38405;53.212;5.660;2022-12-07T08:14:39;4.30;99.90
52495;DHT22;38405;53.212;5.660;2022-12-07T08:17:04;4.00;99.90
52495;DHT22;38405;53.212;5.660;2022-12-07T08:19:30;4.00;99.90
52495;DHT22;38405;53.212;5.660;2022-12-07T08:21:56;3.90;99.90
52495;DHT22;38405;53.212;5.660;2022-12-07T08:24:22;3.80;99.90
52495;DHT22;38405;53.212;5.660;2022-12-07T08:26:48;3.80;99.90
52495;DHT22;38405;53.212;5.660;2022-12-07T08:29:15;3.70;99.90
52495;DHT22;38405;53.212;5.660;2022-12-07T08:31:41;3.60;99.90
52495;DHT22;38405;53.212;5.660;2022-12-07T08:34:06;3.60;99.90
52495;DHT22;38405;53.212;5.660;2022-12-07T08:36:32;3.50;99.90
52495;DHT22;38405;53.212;5.660;2022-12-07T08:38:57;3.50;99.90
52495;DHT22;38405;53.212;5.660;2022-12-07T08:41:23;3.50;99.90
52495;DHT22;38405;53.212;5.660;2022-12-07T08:43:48;3.30;99.90
52495;DHT22;38405;53.212;5.660;2022-12-07T08:46:25;3.30;99.90
52495;DHT22;38405;53.212;5.660;2022-12-07T08:48:58;3.20;99.90
52495;DHT22;38405;53.212;5.660;2022-12-07T08:51:27;3.20;99.90
52495;DHT22;38405;53.212;5.660;2022-12-07T08:53:53;3.30;99.90
52495;DHT22;38405;53.212;5.660;2022-12-07T08:56:20;3.40;99.90
52495;DHT22;38405;53.212;5.660;2022-12-07T08:58:47;3.60;99.90
52495;DHT22;38405;53.212;5.660;2022-12-07T09:01:13;3.90;99.90
52495;DHT22;38405;53.212;5.660;2022-12-07T09:03:39;4.20;99.90
52495;DHT22;38405;53.212;5.660;2022-12-07T09:06:05;4.50;99.90
52495;DHT22;38405;53.212;5.660;2022-12-07T09:08:36;4.80;99.90
52495;DHT22;38405;53.212;5.660;2022-12-07T09:11:03;5.20;99.90
52495;DHT22;38405;53.212;5.660;2022-12-07T09:13:28;5.60;99.90
52495;DHT22;38405;53.212;5.660;2022-12-07T09:15:54;5.90;99.90
52495;DHT22;38405;53.212;5.660;2022-12-07T09:18:20;6.30;99.90
52495;DHT22;38405;53.212;5.660;2022-12-07T09:20:46;6.10;99.90
52495;DHT22;38405;53.212;5.660;2022-12-07T09:23:15;5.90;99.90
52495;DHT22;38405;53.212;5.660;2022-12-07T09:25:40;5.70;99.90
52495;DHT22;38405;53.212;5.660;2022-12-07T09:28:06;5.50;99.90
52495;DHT22;38405;53.212;5.660;2022-12-07T09:30:32;5.40;99.90
52495;DHT22;38405;53.212;5.660;2022-12-07T09:32:57;5.30;99.90
52495;DHT22;38405;53.212;5.660;2022-12-07T09:35:24;5.10;99.90
52495;DHT22;38405;53.212;5.660;2022-12-07T09:37:50;5.10;99.90
52495;DHT22;38405;53.212;5.660;2022-12-07T09:40:17;5.10;99.90
52495;DHT22;38405;53.212;5.660;2022-12-07T09:42:48;5.40;99.90
52495;DHT22;38405;53.212;5.660;2022-12-07T09:45:18;5.60;99.90
52495;DHT22;38405;53.212;5.660;2022-12-07T09:47:45;5.90;99.90
52495;DHT22;38405;53.212;5.660;2022-12-07T09:50:20;6.10;99.90
52495;DHT22;38405;53.212;5.660;2022-12-07T09:52:47;6.20;99.90
52495;DHT22;38405;53.212;5.660;2022-12-07T09:55:30;6.40;99.90
52495;DHT22;38405;53.212;5.660;2022-12-07T09:57:57;6.60;99.90
52495;DHT22;38405;53.212;5.660;2022-12-07T10:00:24;6.80;99.90
52495;DHT22;38405;53.212;5.660;2022-12-07T10:02:59;7.00;99.90
52495;DHT22;38405;53.212;5.660;2022-12-07T10:05:35;7.10;99.90
52495;DHT22;38405;53.212;5.660;2022-12-07T10:08:04;7.10;99.90
52495;DHT22;38405;53.212;5.660;2022-12-07T10:10:32;7.20;99.90
52495;DHT22;38405;53.212;5.660;2022-12-07T10:13:02;7.30;99.90
52495;DHT22;38405;53.212;5.660;2022-12-07T10:15:51;7.30;99.90
52495;DHT22;38405;53.212;5.660;2022-12-07T10:18:26;7.10;99.90
52495;DHT22;38405;53.212;5.660;2022-12-07T10:23:31;6.70;99.90
52495;DHT22;38405;53.212;5.660;2022-12-07T10:25:56;6.40;99.90
52495;DHT22;38405;53.212;5.660;2022-12-07T10:28:22;6.20;99.90
52495;DHT22;38405;53.212;5.660;2022-12-07T10:36:01;5.80;99.90
52495;DHT22;38405;53.212;5.660;2022-12-07T10:38:45;5.80;99.90
52495;DHT22;38405;53.212;5.660;2022-12-07T10:41:11;5.80;99.90
52495;DHT22;38405;53.212;5.660;2022-12-07T10:43:36;5.80;99.90
52495;DHT22;38405;53.212;5.660;2022-12-07T10:46:20;5.90;99.90
52495;DHT22;38405;53.212;5.660;2022-12-07T10:51:45;5.90;99.90
52495;DHT22;38405;53.212;5.660;2022-12-07T11:00:11;6.00;99.90
52495;DHT22;38405;53.212;5.660;2022-12-07T11:05:33;6.10;99.90
52495;DHT22;38405;53.212;5.660;2022-12-07T11:10:54;6.40;99.90
52495;DHT22;38405;53.212;5.660;2022-12-07T11:16:10;6.20;99.90
52495;DHT22;38405;53.212;5.660;2022-12-07T11:24:17;5.70;99.90
52495;DHT22;38405;53.212;5.660;2022-12-07T11:27:07;5.90;99.90
52495;DHT22;38405;53.212;5.660;2022-12-07T11:29:49;5.90;99.90
52495;DHT22;38405;53.212;5.660;2022-12-07T11:32:46;6.00;99.90
52495;DHT22;38405;53.212;5.660;2022-12-07T11:35:43;6.30;99.90
52495;DHT22;38405;53.212;5.660;2022-12-07T11:38:17;6.40;99.90
52495;DHT22;38405;53.212;5.660;2022-12-07T11:40:48;6.50;99.90
52495;DHT22;38405;53.212;5.660;2022-12-07T11:43:31;6.40;99.90
52495;DHT22;38405;53.212;5.660;2022-12-07T11:46:03;6.50;99.90
52495;DHT22;38405;53.212;5.660;2022-12-07T11:48:40;6.40;99.90
52495;DHT22;38405;53.212;5.660;2022-12-07T11:51:10;6.50;99.90
52495;DHT22;38405;53.212;5.660;2022-12-07T11:53:44;6.60;99.90
52495;DHT22;38405;53.212;5.660;2022-12-07T11:56:12;6.70;99.90
52495;DHT22;38405;53.212;5.660;2022-12-07T12:06:27;7.00;99.90
52495;DHT22;38405;53.212;5.660;2022-12-07T12:12:45;6.70;99.90
52495;DHT22;38405;53.212;5.660;2022-12-07T12:28:53;6.00;99.90
52495;DHT22;38405;53.212;5.660;2022-12-07T12:33:50;6.00;99.90
52495;DHT22;38405;53.212;5.660;2022-12-07T12:36:24;6.00;99.90
52495;DHT22;38405;53.212;5.660;2022-12-07T12:39:11;6.40;99.90
52495;DHT22;38405;53.212;5.660;2022-12-07T12:47:01;6.10;99.90
52495;DHT22;38405;53.212;5.660;2022-12-07T12:49:41;5.90;99.90
52495;DHT22;38405;53.212;5.660;2022-12-07T12:55:11;5.50;99.90
52495;DHT22;38405;53.212;5.660;2022-12-07T12:57:38;5.40;99.90
52495;DHT22;38405;53.212;5.660;2022-12-07T13:00:19;5.30;99.90
52495;DHT22;38405;53.212;5.660;2022-12-07T13:02:52;5.30;99.90
52495;DHT22;38405;53.212;5.660;2022-12-07T13:05:21;5.20;99.90
52495;DHT22;38405;53.212;5.660;2022-12-07T13:23:38;5.30;99.90
52495;DHT22;38405;53.212;5.660;2022-12-07T13:28:49;5.00;99.90
52495;DHT22;38405;53.212;5.660;2022-12-07T13:31:38;5.00;99.90
52495;DHT22;38405;53.212;5.660;2022-12-07T13:34:26;4.80;99.90
52495;DHT22;38405;53.212;5.660;2022-12-07T13:36:51;5.60;99.90
52495;DHT22;38405;53.212;5.660;2022-12-07T13:39:22;4.70;99.90
52495;DHT22;38405;53.212;5.660;2022-12-07T13:41:56;4.70;99.90
52495;DHT22;38405;53.212;5.660;2022-12-07T13:44:27;4.60;99.90
52495;DHT22;38405;53.212;5.660;2022-12-07T13:47:20;4.60;99.90
52495;DHT22;38405;53.212;5.660;2022-12-07T13:49:55;4.50;99.90
52495;DHT22;38405;53.212;5.660;2022-12-07T13:57:32;4.40;99.90
52495;DHT22;38405;53.212;5.660;2022-12-07T14:00:04;4.40;99.90
52495;DHT22;38405;53.212;5.660;2022-12-07T14:02:34;4.30;99.90
52495;DHT22;38405;53.212;5.660;2022-12-07T14:05:14;4.30;99.90
52495;DHT22;38405;53.212;5.660;2022-12-07T14:10:35;4.20;99.90
52495;DHT22;38405;53.212;5.660;2022-12-07T14:13:02;4.20;99.90
52495;DHT22;38405;53.212;5.660;2022-12-07T14:15:33;4.10;99.90
52495;DHT22;38405;53.212;5.660;2022-12-07T14:18:01;4.20;99.90
52495;DHT22;38405;53.212;5.660;2022-12-07T14:20:40;4.50;99.90
52495;DHT22;38405;53.212;5.660;2022-12-07T14:23:24;4.80;99.90
52495;DHT22;38405;53.212;5.660;2022-12-07T14:25:53;4.10;99.90
52495;DHT22;38405;53.212;5.660;2022-12-07T14:28:27;4.10;99.90
52495;DHT22;38405;53.212;5.660;2022-12-07T14:30:53;4.00;99.90
52495;DHT22;38405;53.212;5.660;2022-12-07T14:33:19;3.90;99.90
52495;DHT22;38405;53.212;5.660;2022-12-07T14:35:44;3.90;99.90
52495;DHT22;38405;53.212;5.660;2022-12-07T14:38:10;3.80;99.90
52495;DHT22;38405;53.212;5.660;2022-12-07T14:40:36;3.80;99.90
52495;DHT22;38405;53.212;5.660;2022-12-07T14:43:09;3.70;99.90
52495;DHT22;38405;53.212;5.660;2022-12-07T14:45:36;3.70;99.90
52495;DHT22;38405;53.212;5.660;2022-12-07T14:48:01;3.70;99.90
52495;DHT22;38405;53.212;5.660;2022-12-07T14:50:27;3.70;99.90
52495;DHT22;38405;53.212;5.660;2022-12-07T14:52:59;3.70;99.90
52495;DHT22;38405;53.212;5.660;2022-12-07T14:55:31;3.80;99.90
52495;DHT22;38405;53.212;5.660;2022-12-07T14:57:57;3.80;99.90
52495;DHT22;38405;53.212;5.660;2022-12-07T15:00:30;4.10;99.90
52495;DHT22;38405;53.212;5.660;2022-12-07T15:02:56;4.00;99.90
52495;DHT22;38405;53.212;5.660;2022-12-07T15:05:22;4.00;99.90
52495;DHT22;38405;53.212;5.660;2022-12-07T15:07:48;4.20;99.90
52495;DHT22;38405;53.212;5.660;2022-12-07T15:10:18;4.10;99.90
52495;DHT22;38405;53.212;5.660;2022-12-07T15:12:44;4.10;99.90
52495;DHT22;38405;53.212;5.660;2022-12-07T15:15:10;4.00;99.90
52495;DHT22;38405;53.212;5.660;2022-12-07T15:17:35;3.90;99.90
52495;DHT22;38405;53.212;5.660;2022-12-07T15:20:02;3.90;99.90
52495;DHT22;38405;53.212;5.660;2022-12-07T15:22:27;3.90;99.90
52495;DHT22;38405;53.212;5.660;2022-12-07T15:24:55;3.80;99.90
52495;DHT22;38405;53.212;5.660;2022-12-07T15:27:20;3.80;99.90
52495;DHT22;38405;53.212;5.660;2022-12-07T15:29:46;3.80;99.90
52495;DHT22;38405;53.212;5.660;2022-12-07T15:32:12;3.70;99.90
52495;DHT22;38405;53.212;5.660;2022-12-07T15:34:37;3.70;99.90
52495;DHT22;38405;53.212;5.660;2022-12-07T15:37:04;3.60;99.90
52495;DHT22;38405;53.212;5.660;2022-12-07T15:39:30;3.60;99.90
52495;DHT22;38405;53.212;5.660;2022-12-07T15:41:56;3.60;99.90
52495;DHT22;38405;53.212;5.660;2022-12-07T15:44:21;3.60;99.90
52495;DHT22;38405;53.212;5.660;2022-12-07T15:47:06;3.40;99.90
52495;DHT22;38405;53.212;5.660;2022-12-07T15:49:31;3.40;99.90
52495;DHT22;38405;53.212;5.660;2022-12-07T15:51:57;3.40;99.90
52495;DHT22;38405;53.212;5.660;2022-12-07T15:54:26;3.30;99.90
52495;DHT22;38405;53.212;5.660;2022-12-07T15:56:52;3.30;99.90
52495;DHT22;38405;53.212;5.660;2022-12-07T15:59:18;3.30;99.90
52495;DHT22;38405;53.212;5.660;2022-12-07T16:01:46;3.20;99.90
52495;DHT22;38405;53.212;5.660;2022-12-07T16:04:12;3.20;99.90
52495;DHT22;38405;53.212;5.660;2022-12-07T16:06:38;3.10;99.90
52495;DHT22;38405;53.212;5.660;2022-12-07T16:09:04;3.00;99.90
52495;DHT22;38405;53.212;5.660;2022-12-07T16:11:31;3.00;99.90
52495;DHT22;38405;53.212;5.660;2022-12-07T16:13:57;3.00;99.90
52495;DHT22;38405;53.212;5.660;2022-12-07T16:16:22;3.00;99.90
52495;DHT22;38405;53.212;5.660;2022-12-07T16:18:49;3.10;99.90
52495;DHT22;38405;53.212;5.660;2022-12-07T16:21:16;3.00;99.90
52495;DHT22;38405;53.212;5.660;2022-12-07T16:23:43;3.10;99.90
52495;DHT22;38405;53.212;5.660;2022-12-07T16:26:18;3.10;99.90
52495;DHT22;38405;53.212;5.660;2022-12-07T16:28:45;3.40;99.90
52495;DHT22;38405;53.212;5.660;2022-12-07T16:31:15;3.10;99.90
52495;DHT22;38405;53.212;5.660;2022-12-07T16:33:43;3.10;99.90
52495;DHT22;38405;53.212;5.660;2022-12-07T16:36:10;3.10;99.90
52495;DHT22;38405;53.212;5.660;2022-12-07T16:38:37;3.10;99.90
52495;DHT22;38405;53.212;5.660;2022-12-07T16:41:04;3.10;99.90
52495;DHT22;38405;53.212;5.660;2022-12-07T16:43:30;3.00;99.90
52495;DHT22;38405;53.212;5.660;2022-12-07T16:45:56;3.00;99.90
52495;DHT22;38405;53.212;5.660;2022-12-07T16:48:21;3.00;99.90
52495;DHT22;38405;53.212;5.660;2022-12-07T16:50:47;3.10;99.90
52495;DHT22;38405;53.212;5.660;2022-12-07T16:53:14;3.00;99.90
52495;DHT22;38405;53.212;5.660;2022-12-07T16:55:42;3.00;99.90
52495;DHT22;38405;53.212;5.660;2022-12-07T16:58:09;3.00;99.90
52495;DHT22;38405;53.212;5.660;2022-12-07T17:00:36;3.10;99.90
52495;DHT22;38405;53.212;5.660;2022-12-07T17:03:03;3.20;99.90
52495;DHT22;38405;53.212;5.660;2022-12-07T17:05:28;3.20;99.90
52495;DHT22;38405;53.212;5.660;2022-12-07T17:07:55;3.30;99.90
52495;DHT22;38405;53.212;5.660;2022-12-07T17:10:21;3.30;99.90
52495;DHT22;38405;53.212;5.660;2022-12-07T17:12:47;3.40;99.90
52495;DHT22;38405;53.212;5.660;2022-12-07T17:15:12;3.40;99.90
52495;DHT22;38405;53.212;5.660;2022-12-07T17:17:53;3.40;99.90
52495;DHT22;38405;53.212;5.660;2022-12-07T17:20:29;3.40;99.90
52495;DHT22;38405;53.212;5.660;2022-12-07T17:22:54;3.40;99.90
52495;DHT22;38405;53.212;5.660;2022-12-07T17:25:20;3.30;99.90
52495;DHT22;38405;53.212;5.660;2022-12-07T17:27:46;3.30;99.90
52495;DHT22;38405;53.212;5.660;2022-12-07T17:30:12;3.20;99.90
52495;DHT22;38405;53.212;5.660;2022-12-07T17:32:38;3.10;99.90
52495;DHT22;38405;53.212;5.660;2022-12-07T17:35:05;3.00;99.90
52495;DHT22;38405;53.212;5.660;2022-12-07T17:37:31;2.90;99.90
52495;DHT22;38405;53.212;5.660;2022-12-07T17:39:57;2.90;99.90
52495;DHT22;38405;53.212;5.660;2022-12-07T17:42:24;2.80;99.90
52495;DHT22;38405;53.212;5.660;2022-12-07T17:45:03;2.60;99.90
52495;DHT22;38405;53.212;5.660;2022-12-07T17:47:29;2.60;99.90
52495;DHT22;38405;53.212;5.660;2022-12-07T17:49:55;2.50;99.90
52495;DHT22;38405;53.212;5.660;2022-12-07T17:52:21;2.50;99.90
52495;DHT22;38405;53.212;5.660;2022-12-07T17:55:06;2.50;99.90
52495;DHT22;38405;53.212;5.660;2022-12-07T17:57:31;2.50;99.90
52495;DHT22;38405;53.212;5.660;2022-12-07T17:59:57;2.50;99.90
52495;DHT22;38405;53.212;5.660;2022-12-07T18:02:23;2.50;99.90